createdAt,value
2018-03-14T00:00:04.654Z,3.437
2018-03-14T00:01:03.313Z,3.437
2018-03-14T00:02:03.628Z,3.437
2018-03-14T00:03:03.225Z,3.437
2018-03-14T00:04:03.536Z,3.437
2018-03-14T00:05:03.285Z,3.437
2018-03-14T00:06:03.793Z,3.437
2018-03-14T00:07:03.180Z,3.375
2018-03-14T00:08:03.568Z,3.375
2018-03-14T00:09:03.929Z,3.437
2018-03-14T00:10:03.568Z,3.437
2018-03-14T00:11:03.117Z,3.437
2018-03-14T00:12:03.609Z,3.375
2018-03-14T00:13:03.130Z,3.375
2018-03-14T00:14:03.795Z,3.375
2018-03-14T00:15:03.526Z,3.437
2018-03-14T00:16:03.805Z,3.437
2018-03-14T00:17:03.410Z,3.375
2018-03-14T00:18:03.814Z,3.375
2018-03-14T00:19:03.725Z,3.437
2018-03-14T00:20:03.788Z,3.437
2018-03-14T00:21:03.160Z,3.437
2018-03-14T00:22:03.719Z,3.375
2018-03-14T00:23:04.885Z,3.375
2018-03-14T00:24:03.209Z,3.375
2018-03-14T00:25:03.640Z,3.375
2018-03-14T00:26:03.122Z,3.375
2018-03-14T00:27:03.556Z,3.437
2018-03-14T00:28:03.995Z,3.375
2018-03-14T00:29:03.461Z,3.375
2018-03-14T00:30:03.218Z,3.375
2018-03-14T00:31:03.662Z,3.375
2018-03-14T00:32:03.158Z,3.375
2018-03-14T00:33:03.539Z,3.312
2018-03-14T00:34:04.904Z,3.375
2018-03-14T00:35:03.524Z,3.375
2018-03-14T00:36:04.554Z,3.312
2018-03-14T00:37:03.867Z,3.375
2018-03-14T00:38:03.499Z,3.375
2018-03-14T00:39:04.229Z,3.375
2018-03-14T00:40:04.595Z,3.375
2018-03-14T00:41:03.950Z,3.375
2018-03-14T00:42:03.504Z,3.375
2018-03-14T00:43:04.038Z,3.375
2018-03-14T00:44:03.546Z,3.375
2018-03-14T00:45:04.120Z,3.375
2018-03-14T00:46:03.080Z,3.375
2018-03-14T00:47:03.517Z,3.312
2018-03-14T00:48:03.924Z,3.375
2018-03-14T00:49:03.624Z,3.375
2018-03-14T00:50:03.177Z,3.375
2018-03-14T00:51:03.654Z,3.375
2018-03-14T00:52:03.164Z,3.375
2018-03-14T00:53:03.699Z,3.312
2018-03-14T00:54:03.859Z,3.375
2018-03-14T00:55:03.371Z,3.312
2018-03-14T00:56:03.972Z,3.312
2018-03-14T00:57:04.427Z,3.312
2018-03-14T00:58:03.722Z,3.312
2018-03-14T00:59:03.182Z,3.312
2018-03-14T01:00:03.950Z,3.312
2018-03-14T01:01:04.069Z,3.312
2018-03-14T01:02:03.432Z,3.312
2018-03-14T01:03:04.059Z,3.312
2018-03-14T01:04:03.613Z,3.312
2018-03-14T01:05:03.692Z,3.312
2018-03-14T01:06:04.112Z,3.25
2018-03-14T01:07:03.673Z,3.312
2018-03-14T01:08:03.571Z,3.312
2018-03-14T01:09:03.431Z,3.312
2018-03-14T01:10:03.962Z,3.25
2018-03-14T01:11:03.457Z,3.25
2018-03-14T01:12:03.885Z,3.25
2018-03-14T01:13:03.549Z,3.25
2018-03-14T01:14:03.832Z,3.25
2018-03-14T01:15:03.678Z,3.25
2018-03-14T01:16:04.232Z,3.187
2018-03-14T01:17:03.563Z,3.187
2018-03-14T01:18:03.215Z,3.187
2018-03-14T01:19:04.696Z,3.187
2018-03-14T01:20:03.747Z,3.125
2018-03-14T01:21:03.186Z,3.187
2018-03-14T01:22:03.613Z,3.125
2018-03-14T01:23:03.372Z,3.125
2018-03-14T01:24:03.887Z,3.125
2018-03-14T01:25:03.229Z,3.125
2018-03-14T01:26:03.683Z,3.062
2018-03-14T01:27:03.276Z,3.062
2018-03-14T01:28:03.695Z,3.062
2018-03-14T01:29:03.232Z,3.062
2018-03-14T01:30:05.063Z,3.062
2018-03-14T01:31:03.457Z,3.062
2018-03-14T01:32:03.917Z,3
2018-03-14T01:33:03.222Z,3
2018-03-14T01:34:03.641Z,3
2018-03-14T01:35:03.509Z,3
2018-03-14T01:36:03.870Z,3
2018-03-14T01:37:03.450Z,3
2018-03-14T01:38:03.832Z,2.937
2018-03-14T01:39:03.135Z,2.937
2018-03-14T01:40:03.759Z,2.937
2018-03-14T01:41:03.119Z,2.937
2018-03-14T01:42:03.596Z,2.937
2018-03-14T01:43:03.233Z,2.937
2018-03-14T01:44:03.865Z,2.937
2018-03-14T01:45:03.442Z,2.937
2018-03-14T01:46:03.827Z,2.937
2018-03-14T01:47:03.350Z,2.875
2018-03-14T01:48:03.478Z,2.875
2018-03-14T01:49:03.980Z,2.937
2018-03-14T01:50:03.472Z,2.875
2018-03-14T01:51:03.170Z,2.875
2018-03-14T01:52:03.601Z,2.875
2018-03-14T01:53:03.136Z,2.875
2018-03-14T01:54:03.577Z,2.875
2018-03-14T01:55:03.370Z,2.812
2018-03-14T01:56:03.682Z,2.875
2018-03-14T01:57:03.305Z,2.812
2018-03-14T01:58:03.564Z,2.812
2018-03-14T01:59:03.136Z,2.875
2018-03-14T02:00:03.888Z,2.875
2018-03-14T02:01:03.425Z,2.812
2018-03-14T02:02:04.043Z,2.875
2018-03-14T02:03:03.608Z,2.875
2018-03-14T02:04:03.145Z,2.875
2018-03-14T02:05:04.012Z,2.875
2018-03-14T02:06:03.436Z,2.875
2018-03-14T02:07:04.814Z,2.875
2018-03-14T02:08:03.381Z,2.875
2018-03-14T02:09:04.058Z,2.875
2018-03-14T02:10:03.704Z,2.875
2018-03-14T02:11:03.515Z,2.875
2018-03-14T02:12:03.055Z,2.812
2018-03-14T02:13:03.393Z,2.875
2018-03-14T02:14:03.860Z,2.875
2018-03-14T02:15:03.311Z,2.875
2018-03-14T02:16:03.749Z,2.875
2018-03-14T02:17:03.288Z,2.875
2018-03-14T02:18:03.999Z,2.875
2018-03-14T02:19:03.123Z,2.875
2018-03-14T02:20:03.117Z,2.875
2018-03-14T02:21:03.544Z,2.937
2018-03-14T02:22:03.832Z,2.875
2018-03-14T02:23:03.393Z,2.875
2018-03-14T02:24:03.887Z,2.875
2018-03-14T02:25:03.454Z,2.875
2018-03-14T02:26:03.866Z,2.937
2018-03-14T02:27:03.082Z,2.937
2018-03-14T02:28:03.469Z,2.937
2018-03-14T02:29:03.944Z,2.937
2018-03-14T02:30:03.715Z,2.937
2018-03-14T02:31:03.675Z,2.937
2018-03-14T02:32:03.259Z,2.937
2018-03-14T02:33:03.878Z,2.937
2018-03-14T02:34:03.725Z,3
2018-03-14T02:35:03.378Z,3
2018-03-14T02:36:03.681Z,3
2018-03-14T02:37:03.137Z,3
2018-03-14T02:38:03.664Z,3
2018-03-14T02:39:08.655Z,3
2018-03-14T02:40:03.608Z,3
2018-03-14T02:41:03.935Z,3.062
2018-03-14T02:42:03.998Z,3
2018-03-14T02:43:03.648Z,3
2018-03-14T02:44:03.191Z,3
2018-03-14T02:45:03.877Z,3.062
2018-03-14T02:46:03.335Z,3.062
2018-03-14T02:47:03.708Z,3.062
2018-03-14T02:48:03.362Z,3.062
2018-03-14T02:49:03.739Z,3.062
2018-03-14T02:50:03.228Z,3.062
2018-03-14T02:51:03.708Z,3.062
2018-03-14T02:52:03.254Z,3.062
2018-03-14T02:53:03.847Z,3.062
2018-03-14T02:54:03.304Z,3.062
2018-03-14T02:55:03.811Z,3.062
2018-03-14T02:56:03.364Z,3.062
2018-03-14T02:57:03.806Z,3.062
2018-03-14T02:58:03.096Z,3.062
2018-03-14T02:59:03.515Z,3.125
2018-03-14T03:00:04.766Z,3.062
2018-03-14T03:01:03.494Z,3.125
2018-03-14T03:02:04.083Z,3.125
2018-03-14T03:03:03.585Z,3.062
2018-03-14T03:04:03.148Z,3.125
2018-03-14T03:05:03.762Z,3.125
2018-03-14T03:06:03.138Z,3.125
2018-03-14T03:07:03.555Z,3.125
2018-03-14T03:08:03.977Z,3.125
2018-03-14T03:09:03.561Z,3.125
2018-03-14T03:10:03.979Z,3.125
2018-03-14T03:11:03.376Z,3.125
2018-03-14T03:12:03.779Z,3.125
2018-03-14T03:13:03.221Z,3.125
2018-03-14T03:14:03.587Z,3.125
2018-03-14T03:15:03.172Z,3.125
2018-03-14T03:16:03.637Z,3.187
2018-03-14T03:17:03.548Z,3.187
2018-03-14T03:18:03.894Z,3.187
2018-03-14T03:19:03.342Z,3.187
2018-03-14T03:20:04.074Z,3.187
2018-03-14T03:21:03.671Z,3.187
2018-03-14T03:22:03.249Z,3.187
2018-03-14T03:23:03.328Z,3.125
2018-03-14T03:24:03.786Z,3.125
2018-03-14T03:25:03.369Z,3.187
2018-03-14T03:26:03.665Z,3.187
2018-03-14T03:27:03.035Z,3.187
2018-03-14T03:28:03.622Z,3.125
2018-03-14T03:29:04.457Z,3.125
2018-03-14T03:30:03.837Z,3.187
2018-03-14T03:31:03.422Z,3.187
2018-03-14T03:32:03.825Z,3.125
2018-03-14T03:33:03.625Z,3.125
2018-03-14T03:34:03.320Z,3.125
2018-03-14T03:35:03.542Z,3.187
2018-03-14T03:36:03.853Z,3.187
2018-03-14T03:37:04.263Z,3.125
2018-03-14T03:38:03.627Z,3.125
2018-03-14T03:39:03.065Z,3.125
2018-03-14T03:40:03.632Z,3.125
2018-03-14T03:41:03.418Z,3.125
2018-03-14T03:42:03.935Z,3.125
2018-03-14T03:43:03.332Z,3.125
2018-03-14T03:44:04.799Z,3.125
2018-03-14T03:45:03.437Z,3.125
2018-03-14T03:46:03.874Z,3.125
2018-03-14T03:47:03.289Z,3.062
2018-03-14T03:48:03.709Z,3.062
2018-03-14T03:49:03.442Z,3.062
2018-03-14T03:50:03.787Z,3.062
2018-03-14T03:51:03.277Z,3
2018-03-14T03:52:03.784Z,3
2018-03-14T03:53:03.202Z,3
2018-03-14T03:54:03.679Z,3
2018-03-14T03:55:03.168Z,3
2018-03-14T03:56:03.653Z,3
2018-03-14T03:57:03.093Z,3
2018-03-14T03:58:03.506Z,3.062
2018-03-14T03:59:03.989Z,3.062
2018-03-14T04:00:03.551Z,3.062
2018-03-14T04:01:03.303Z,3
2018-03-14T04:02:03.833Z,3
2018-03-14T04:03:03.402Z,2.937
2018-03-14T04:04:03.837Z,3
2018-03-14T04:05:03.644Z,3.062
2018-03-14T04:06:03.053Z,3.062
2018-03-14T04:07:03.506Z,3.062
2018-03-14T04:08:03.966Z,3
2018-03-14T04:09:03.488Z,3
2018-03-14T04:10:03.451Z,3
2018-03-14T04:11:03.062Z,3
2018-03-14T04:12:03.455Z,3
2018-03-14T04:13:03.844Z,3
2018-03-14T04:14:03.452Z,3
2018-03-14T04:15:04.018Z,3
2018-03-14T04:16:03.415Z,3
2018-03-14T04:17:03.961Z,3
2018-03-14T04:18:03.352Z,3
2018-03-14T04:19:03.899Z,2.937
2018-03-14T04:20:03.636Z,2.937
2018-03-14T04:21:04.043Z,2.937
2018-03-14T04:22:03.503Z,2.937
2018-03-14T04:23:03.925Z,2.937
2018-03-14T04:24:03.340Z,2.937
2018-03-14T04:25:03.732Z,2.937
2018-03-14T04:26:03.242Z,2.937
2018-03-14T04:27:03.693Z,2.937
2018-03-14T04:28:03.303Z,2.875
2018-03-14T04:29:03.781Z,2.875
2018-03-14T04:30:03.264Z,2.875
2018-03-14T04:31:03.395Z,2.875
2018-03-14T04:32:03.696Z,2.875
2018-03-14T04:33:08.173Z,2.875
2018-03-14T04:34:03.534Z,2.875
2018-03-14T04:35:03.837Z,2.812
2018-03-14T04:36:03.141Z,2.875
2018-03-14T04:37:03.602Z,2.875
2018-03-14T04:38:03.208Z,2.875
2018-03-14T04:39:03.816Z,2.875
2018-03-14T04:40:03.497Z,2.875
2018-03-14T04:41:03.766Z,2.875
2018-03-14T04:42:03.422Z,2.812
2018-03-14T04:43:03.845Z,2.812
2018-03-14T04:44:03.960Z,2.875
2018-03-14T04:45:03.540Z,2.875
2018-03-14T04:46:04.119Z,2.875
2018-03-14T04:47:03.041Z,2.937
2018-03-14T04:48:03.416Z,2.937
2018-03-14T04:49:03.797Z,3
2018-03-14T04:50:03.584Z,2.937
2018-03-14T04:51:03.125Z,2.875
2018-03-14T04:52:03.550Z,2.875
2018-03-14T04:53:04.513Z,2.875
2018-03-14T04:54:03.851Z,2.875
2018-03-14T04:55:03.412Z,2.875
2018-03-14T04:56:04.007Z,2.812
2018-03-14T04:57:03.362Z,2.875
2018-03-14T04:58:03.502Z,2.875
2018-03-14T04:59:03.178Z,2.937
2018-03-14T05:00:04.010Z,2.937
2018-03-14T05:01:03.389Z,2.937
2018-03-14T05:02:03.189Z,2.937
2018-03-14T05:03:03.709Z,2.937
2018-03-14T05:04:03.411Z,2.875
2018-03-14T05:05:03.319Z,2.875
2018-03-14T05:06:03.695Z,2.875
2018-03-14T05:07:03.052Z,2.875
2018-03-14T05:08:03.399Z,2.875
2018-03-14T05:09:04.324Z,2.937
2018-03-14T05:10:03.722Z,2.875
2018-03-14T05:11:03.520Z,2.937
2018-03-14T05:12:03.776Z,2.937
2018-03-14T05:13:03.151Z,2.937
2018-03-14T05:14:03.532Z,2.875
2018-03-14T05:15:04.003Z,2.875
2018-03-14T05:16:03.424Z,2.937
2018-03-14T05:17:04.002Z,2.875
2018-03-14T05:18:04.448Z,2.937
2018-03-14T05:19:03.860Z,2.937
2018-03-14T05:20:03.376Z,2.937
2018-03-14T05:21:03.767Z,2.937
2018-03-14T05:22:03.169Z,3
2018-03-14T05:23:04.554Z,3
2018-03-14T05:24:03.070Z,2.937
2018-03-14T05:25:04.154Z,3
2018-03-14T05:26:03.817Z,3
2018-03-14T05:27:03.377Z,3
2018-03-14T05:28:03.779Z,3
2018-03-14T05:29:03.401Z,3
2018-03-14T05:30:03.874Z,3
2018-03-14T05:31:03.486Z,3
2018-03-14T05:32:04.070Z,3
2018-03-14T05:33:03.685Z,3.062
2018-03-14T05:34:03.206Z,3.062
2018-03-14T05:35:03.775Z,3
2018-03-14T05:36:03.395Z,3.062
2018-03-14T05:37:03.900Z,3.062
2018-03-14T05:38:03.806Z,3.062
2018-03-14T05:39:03.149Z,3
2018-03-14T05:40:03.915Z,3.062
2018-03-14T05:41:03.647Z,3.062
2018-03-14T05:42:03.192Z,3.062
2018-03-14T05:43:03.547Z,3.062
2018-03-14T05:44:03.168Z,3.125
2018-03-14T05:45:03.905Z,3.125
2018-03-14T05:46:03.277Z,3.125
2018-03-14T05:47:03.763Z,3.125
2018-03-14T05:48:03.446Z,3.125
2018-03-14T05:49:03.794Z,3.187
2018-03-14T05:50:03.179Z,3.187
2018-03-14T05:51:03.595Z,3.187
2018-03-14T05:52:03.118Z,3.187
2018-03-14T05:53:03.668Z,3.187
2018-03-14T05:54:03.220Z,3.25
2018-03-14T05:55:03.852Z,3.25
2018-03-14T05:56:03.405Z,3.25
2018-03-14T05:57:03.941Z,3.312
2018-03-14T05:58:03.380Z,3.312
2018-03-14T05:59:03.788Z,3.312
2018-03-14T06:00:03.327Z,3.312
2018-03-14T06:01:03.983Z,3.375
2018-03-14T06:02:03.537Z,3.437
2018-03-14T06:03:03.079Z,3.375
2018-03-14T06:04:03.489Z,3.437
2018-03-14T06:05:03.945Z,3.437
2018-03-14T06:06:03.416Z,3.437
2018-03-14T06:07:03.855Z,3.437
2018-03-14T06:08:03.324Z,3.5
2018-03-14T06:09:03.921Z,3.5
2018-03-14T06:10:03.472Z,3.5
2018-03-14T06:11:03.736Z,3.562
2018-03-14T06:12:03.248Z,3.562
2018-03-14T06:13:03.717Z,3.562
2018-03-14T06:14:03.422Z,3.562
2018-03-14T06:15:04.023Z,3.562
2018-03-14T06:16:03.544Z,3.625
2018-03-14T06:17:03.201Z,3.625
2018-03-14T06:18:03.579Z,3.625
2018-03-14T06:19:03.116Z,3.687
2018-03-14T06:20:04.144Z,3.687
2018-03-14T06:21:03.495Z,3.75
2018-03-14T06:22:03.437Z,3.75
2018-03-14T06:23:03.780Z,3.812
2018-03-14T06:24:03.170Z,3.812
2018-03-14T06:25:03.664Z,3.812
2018-03-14T06:26:03.233Z,3.812
2018-03-14T06:27:03.673Z,3.875
2018-03-14T06:28:03.887Z,3.937
2018-03-14T06:29:03.581Z,3.937
2018-03-14T06:30:03.594Z,3.937
2018-03-14T06:31:03.116Z,4
2018-03-14T06:32:03.741Z,4
2018-03-14T06:33:03.246Z,4
2018-03-14T06:34:03.549Z,4.062
2018-03-14T06:35:03.975Z,4
2018-03-14T06:36:03.513Z,4
2018-03-14T06:37:03.978Z,4
2018-03-14T06:38:03.890Z,4
2018-03-14T06:39:03.451Z,4.062
2018-03-14T06:40:03.441Z,4.125
2018-03-14T06:41:03.369Z,4.187
2018-03-14T06:42:03.789Z,4.187
2018-03-14T06:43:03.419Z,4.187
2018-03-14T06:44:03.972Z,4.25
2018-03-14T06:45:03.435Z,4.312
2018-03-14T06:46:03.980Z,4.375
2018-03-14T06:47:03.501Z,4.5
2018-03-14T06:48:03.905Z,4.625
2018-03-14T06:49:03.468Z,4.625
2018-03-14T06:50:03.852Z,4.562
2018-03-14T06:51:03.706Z,4.5
2018-03-14T06:52:03.205Z,4.562
2018-03-14T06:53:03.561Z,4.625
2018-03-14T06:54:03.951Z,4.687
2018-03-14T06:55:03.731Z,4.687
2018-03-14T06:56:03.319Z,4.625
2018-03-14T06:57:03.856Z,4.625
2018-03-14T06:58:03.367Z,4.687
2018-03-14T06:59:03.853Z,4.687
2018-03-14T07:00:03.570Z,4.687
2018-03-14T07:01:03.116Z,4.687
2018-03-14T07:02:03.652Z,4.75
2018-03-14T07:03:03.370Z,4.812
2018-03-14T07:04:03.772Z,4.812
2018-03-14T07:05:03.191Z,4.812
2018-03-14T07:06:03.681Z,4.875
2018-03-14T07:07:03.072Z,4.812
2018-03-14T07:08:03.672Z,4.875
2018-03-14T07:09:03.371Z,4.937
2018-03-14T07:10:03.898Z,4.937
2018-03-14T07:11:03.410Z,5
2018-03-14T07:12:03.913Z,5.062
2018-03-14T07:13:03.343Z,5.125
2018-03-14T07:14:03.926Z,5.312
2018-03-14T07:15:03.784Z,5.375
2018-03-14T07:16:03.215Z,5.375
2018-03-14T07:17:03.896Z,5.375
2018-03-14T07:18:03.510Z,5.375
2018-03-14T07:19:03.174Z,5.437
2018-03-14T07:20:03.653Z,5.437
2018-03-14T07:21:03.581Z,5.312
2018-03-14T07:22:03.418Z,5.375
2018-03-14T07:23:03.812Z,5.437
2018-03-14T07:24:03.317Z,5.437
2018-03-14T07:25:03.771Z,5.375
2018-03-14T07:26:03.199Z,5.375
2018-03-14T07:27:03.545Z,5.437
2018-03-14T07:28:03.354Z,5.562
2018-03-14T07:29:03.643Z,5.562
2018-03-14T07:30:04.127Z,5.562
2018-03-14T07:31:03.728Z,5.375
2018-03-14T07:32:03.154Z,5.25
2018-03-14T07:33:03.642Z,5.25
2018-03-14T07:34:04.063Z,5.187
2018-03-14T07:35:03.637Z,5.25
2018-03-14T07:36:03.045Z,5.312
2018-03-14T07:37:03.453Z,5.312
2018-03-14T07:38:03.878Z,5.312
2018-03-14T07:39:03.555Z,5.187
2018-03-14T07:40:03.892Z,5.187
2018-03-14T07:41:03.438Z,5.312
2018-03-14T07:42:03.819Z,5.375
2018-03-14T07:43:03.223Z,5.437
2018-03-14T07:44:03.582Z,5.5
2018-03-14T07:45:03.128Z,5.562
2018-03-14T07:46:03.632Z,5.5
2018-03-14T07:47:03.912Z,5.5
2018-03-14T07:48:03.587Z,5.5
2018-03-14T07:49:04.317Z,5.562
2018-03-14T07:50:03.873Z,5.5
2018-03-14T07:51:03.403Z,5.5
2018-03-14T07:52:03.828Z,5.437
2018-03-14T07:53:03.443Z,5.5
2018-03-14T07:54:03.689Z,5.5
2018-03-14T07:55:03.197Z,5.5
2018-03-14T07:56:03.666Z,5.5
2018-03-14T07:57:04.082Z,5.5
2018-03-14T07:58:03.387Z,5.375
2018-03-14T07:59:03.782Z,5.312
2018-03-14T08:00:03.515Z,5.375
2018-03-14T08:01:04.264Z,5.437
2018-03-14T08:02:03.700Z,5.625
2018-03-14T08:03:03.049Z,5.75
2018-03-14T08:04:03.858Z,5.75
2018-03-14T08:05:03.442Z,5.875
2018-03-14T08:06:03.053Z,5.875
2018-03-14T08:07:03.486Z,5.812
2018-03-14T08:08:03.918Z,5.812
2018-03-14T08:09:03.336Z,5.875
2018-03-14T08:10:03.860Z,5.812
2018-03-14T08:11:03.504Z,5.75
2018-03-14T08:12:03.938Z,5.687
2018-03-14T08:13:03.362Z,5.812
2018-03-14T08:14:03.928Z,5.937
2018-03-14T08:15:03.498Z,6.062
2018-03-14T08:16:03.977Z,6.187
2018-03-14T08:17:03.662Z,6.375
2018-03-14T08:18:03.029Z,6.562
2018-03-14T08:19:03.523Z,6.562
2018-03-14T08:20:04.143Z,6.437
2018-03-14T08:21:03.533Z,6.25
2018-03-14T08:22:03.884Z,6.187
2018-03-14T08:23:03.203Z,6.125
2018-03-14T08:24:03.614Z,6.25
2018-03-14T08:25:03.420Z,6.312
2018-03-14T08:26:03.756Z,6.312
2018-03-14T08:27:03.566Z,6.375
2018-03-14T08:28:03.275Z,6.5
2018-03-14T08:29:03.654Z,6.625
2018-03-14T08:30:03.254Z,6.625
2018-03-14T08:31:04.925Z,6.562
2018-03-14T08:32:03.538Z,6.812
2018-03-14T08:33:03.903Z,6.812
2018-03-14T08:34:03.421Z,6.875
2018-03-14T08:35:03.893Z,7.062
2018-03-14T08:36:03.362Z,6.875
2018-03-14T08:37:03.866Z,6.562
2018-03-14T08:38:03.504Z,6.312
2018-03-14T08:39:04.029Z,6.187
2018-03-14T08:40:03.611Z,6.187
2018-03-14T08:41:03.375Z,6.25
2018-03-14T08:42:03.702Z,6.125
2018-03-14T08:43:03.358Z,6
2018-03-14T08:44:03.900Z,5.937
2018-03-14T08:45:03.610Z,5.875
2018-03-14T08:46:03.148Z,5.687
2018-03-14T08:47:03.689Z,5.625
2018-03-14T08:48:03.433Z,5.687
2018-03-14T08:49:03.820Z,5.625
2018-03-14T08:50:03.541Z,5.625
2018-03-14T08:51:04.102Z,5.625
2018-03-14T08:52:03.679Z,5.625
2018-03-14T08:53:03.367Z,5.75
2018-03-14T08:54:03.870Z,5.687
2018-03-14T08:55:03.465Z,5.687
2018-03-14T08:56:03.226Z,5.687
2018-03-14T08:57:03.593Z,5.687
2018-03-14T08:58:03.189Z,5.687
2018-03-14T08:59:03.584Z,5.625
2018-03-14T09:00:03.434Z,5.562
2018-03-14T09:01:03.343Z,5.562
2018-03-14T09:02:03.708Z,5.562
2018-03-14T09:03:03.516Z,5.5
2018-03-14T09:04:04.287Z,5.437
2018-03-14T09:05:03.937Z,5.437
2018-03-14T09:06:03.702Z,5.375
2018-03-14T09:07:03.110Z,5.25
2018-03-14T09:08:03.614Z,5.312
2018-03-14T09:09:03.090Z,5.312
2018-03-14T09:10:03.708Z,5.375
2018-03-14T09:11:03.195Z,5.437
2018-03-14T09:12:03.733Z,5.5
2018-03-14T09:13:03.363Z,5.625
2018-03-14T09:14:03.708Z,5.75
2018-03-14T09:15:03.135Z,5.75
2018-03-14T09:16:03.304Z,5.687
2018-03-14T09:17:03.895Z,5.625
2018-03-14T09:18:03.458Z,5.5
2018-03-14T09:19:03.941Z,5.437
2018-03-14T09:20:03.656Z,5.375
2018-03-14T09:21:03.136Z,5.062
2018-03-14T09:22:03.538Z,5
2018-03-14T09:23:03.021Z,4.812
2018-03-14T09:24:03.454Z,4.625
2018-03-14T09:25:03.933Z,4.625
2018-03-14T09:26:03.734Z,4.687
2018-03-14T09:27:03.216Z,4.687
2018-03-14T09:28:03.786Z,4.75
2018-03-14T09:29:03.424Z,4.812
2018-03-14T09:30:04.224Z,4.812
2018-03-14T09:31:03.712Z,4.625
2018-03-14T09:32:03.192Z,4.562
2018-03-14T09:33:03.685Z,4.625
2018-03-14T09:34:03.202Z,4.625
2018-03-14T09:35:04.442Z,4.625
2018-03-14T09:36:03.839Z,4.562
2018-03-14T09:37:03.278Z,4.625
2018-03-14T09:38:03.688Z,4.625
2018-03-14T09:39:03.141Z,4.75
2018-03-14T09:40:03.634Z,4.875
2018-03-14T09:41:03.458Z,4.812
2018-03-14T09:42:03.862Z,4.875
2018-03-14T09:43:03.474Z,4.875
2018-03-14T09:44:03.877Z,4.937
2018-03-14T09:45:03.500Z,5.062
2018-03-14T09:46:04.023Z,5.187
2018-03-14T09:47:03.618Z,5.187
2018-03-14T09:48:03.997Z,5.125
2018-03-14T09:49:03.536Z,5.187
2018-03-14T09:50:03.979Z,5.375
2018-03-14T09:51:03.400Z,5.5
2018-03-14T09:52:03.813Z,5.562
2018-03-14T09:53:03.337Z,5.75
2018-03-14T09:54:03.766Z,5.937
2018-03-14T09:55:03.178Z,5.937
2018-03-14T09:56:03.642Z,6.125
2018-03-14T09:57:03.286Z,6.25
2018-03-14T09:58:03.581Z,6.25
2018-03-14T09:59:03.268Z,6.25
2018-03-14T10:00:04.821Z,6.25
2018-03-14T10:01:03.910Z,6.25
2018-03-14T10:02:03.493Z,6.312
2018-03-14T10:03:03.204Z,6.375
2018-03-14T10:04:03.660Z,6.437
2018-03-14T10:05:03.556Z,6.687
2018-03-14T10:06:03.737Z,6.875
2018-03-14T10:07:03.272Z,6.937
2018-03-14T10:08:03.797Z,7
2018-03-14T10:09:03.668Z,7.187
2018-03-14T10:10:04.098Z,7.187
2018-03-14T10:11:03.575Z,7.25
2018-03-14T10:12:03.950Z,7.5
2018-03-14T10:13:03.463Z,7.875
2018-03-14T10:14:03.862Z,8.062
2018-03-14T10:15:03.829Z,8.187
2018-03-14T10:16:03.260Z,8
2018-03-14T10:17:04.088Z,8.062
2018-03-14T10:18:03.669Z,8.125
2018-03-14T10:19:03.099Z,8.25
2018-03-14T10:20:03.746Z,8.5
2018-03-14T10:21:03.638Z,8.562
2018-03-14T10:22:03.030Z,8.5
2018-03-14T10:23:03.467Z,8.625
2018-03-14T10:24:03.395Z,8.687
2018-03-14T10:25:03.834Z,8.5
2018-03-14T10:26:03.303Z,8.625
2018-03-14T10:27:03.697Z,8.937
2018-03-14T10:28:03.195Z,9
2018-03-14T10:29:03.738Z,9
2018-03-14T10:30:03.452Z,9.062
2018-03-14T10:31:03.570Z,9.187
2018-03-14T10:32:03.562Z,9.25
2018-03-14T10:33:03.155Z,9.062
2018-03-14T10:34:03.759Z,9.375
2018-03-14T10:35:03.332Z,9.25
2018-03-14T10:36:03.864Z,9.062
2018-03-14T10:37:03.521Z,9.187
2018-03-14T10:38:03.997Z,9.125
2018-03-14T10:39:03.412Z,9.062
2018-03-14T10:40:04.058Z,9.062
2018-03-14T10:41:03.503Z,9.5
2018-03-14T10:42:03.913Z,9.75
2018-03-14T10:43:03.359Z,10.062
2018-03-14T10:44:03.745Z,10.125
2018-03-14T10:45:03.601Z,10
2018-03-14T10:46:03.853Z,10.062
2018-03-14T10:47:04.374Z,10.062
2018-03-14T10:48:03.681Z,10.062
2018-03-14T10:49:03.218Z,10
2018-03-14T10:50:03.547Z,9.5
2018-03-14T10:51:03.948Z,9.437
2018-03-14T10:52:03.387Z,9.687
2018-03-14T10:53:03.765Z,9.562
2018-03-14T10:54:03.193Z,9.875
2018-03-14T10:55:03.674Z,9.812
2018-03-14T10:56:03.858Z,9.187
2018-03-14T10:57:03.380Z,9.187
2018-03-14T10:58:03.767Z,8.875
2018-03-14T10:59:03.225Z,8.937
2018-03-14T11:00:03.858Z,9.187
2018-03-14T11:01:03.337Z,9.062
2018-03-14T11:02:03.852Z,8.875
2018-03-14T11:03:03.376Z,9
2018-03-14T11:04:03.742Z,9.187
2018-03-14T11:05:03.308Z,9.312
2018-03-14T11:06:04.645Z,9.187
2018-03-14T11:07:03.190Z,9.125
2018-03-14T11:08:03.637Z,9.125
2018-03-14T11:09:03.157Z,9.125
2018-03-14T11:10:04.938Z,9.062
2018-03-14T11:11:03.243Z,9
2018-03-14T11:12:03.596Z,8.937
2018-03-14T11:13:03.091Z,8.687
2018-03-14T11:14:03.645Z,8.187
2018-03-14T11:15:04.028Z,8.062
2018-03-14T11:16:03.660Z,8
2018-03-14T11:17:03.289Z,7.937
2018-03-14T11:18:04.044Z,7.937
2018-03-14T11:19:03.525Z,7.937
2018-03-14T11:20:03.970Z,8
2018-03-14T11:21:03.398Z,8
2018-03-14T11:22:03.856Z,7.875
2018-03-14T11:23:03.336Z,7.687
2018-03-14T11:24:03.849Z,7.625
2018-03-14T11:25:03.477Z,7.562
2018-03-14T11:26:03.947Z,7.5
2018-03-14T11:27:03.345Z,7.562
2018-03-14T11:28:03.820Z,7.5
2018-03-14T11:29:03.551Z,7.375
2018-03-14T11:30:03.419Z,7.312
2018-03-14T11:31:03.951Z,7.125
2018-03-14T11:32:03.523Z,7
2018-03-14T11:33:04.027Z,6.937
2018-03-14T11:34:03.482Z,6.812
2018-03-14T11:35:04.784Z,6.75
2018-03-14T11:36:03.354Z,6.625
2018-03-14T11:37:03.685Z,6.625
2018-03-14T11:38:03.241Z,6.5
2018-03-14T11:39:03.680Z,6.25
2018-03-14T11:40:03.168Z,6.25
2018-03-14T11:41:03.667Z,6.25
2018-03-14T11:42:04.137Z,6.25
2018-03-14T11:43:03.957Z,6.187
2018-03-14T11:44:03.627Z,6
2018-03-14T11:45:05.472Z,6
2018-03-14T11:46:03.275Z,6
2018-03-14T11:47:03.791Z,5.937
2018-03-14T11:48:03.487Z,5.687
2018-03-14T11:49:04.063Z,5.625
2018-03-14T11:50:03.915Z,5.625
2018-03-14T11:51:03.509Z,5.562
2018-03-14T11:52:04.079Z,5.5
2018-03-14T11:53:03.758Z,5.437
2018-03-14T11:54:03.429Z,5.187
2018-03-14T11:55:03.552Z,5.062
2018-03-14T11:56:04.031Z,4.937
2018-03-14T11:57:03.676Z,4.875
2018-03-14T11:58:03.371Z,4.812
2018-03-14T11:59:03.282Z,4.75
2018-03-14T12:00:04.234Z,4.687
2018-03-14T12:01:03.977Z,4.687
2018-03-14T12:02:04.209Z,4.687
2018-03-14T12:03:03.941Z,4.687
2018-03-14T12:04:03.827Z,4.687
2018-03-14T12:05:03.615Z,4.75
2018-03-14T12:06:03.486Z,4.812
2018-03-14T12:07:03.242Z,4.812
2018-03-14T12:08:03.851Z,4.687
2018-03-14T12:09:04.256Z,4.75
2018-03-14T12:10:03.471Z,4.625
2018-03-14T12:11:03.441Z,4.5
2018-03-14T12:12:03.904Z,4.562
2018-03-14T12:13:03.704Z,4.437
2018-03-14T12:14:03.501Z,4.437
2018-03-14T12:15:03.831Z,4.437
2018-03-14T12:16:03.487Z,4.437
2018-03-14T12:17:05.638Z,4.437
2018-03-14T12:18:03.946Z,4.437
2018-03-14T12:19:03.440Z,4.437
2018-03-14T12:20:03.950Z,4.437
2018-03-14T12:21:03.677Z,4.437
2018-03-14T12:22:03.253Z,4.5
2018-03-14T12:23:03.698Z,4.562
2018-03-14T12:24:03.129Z,4.625
2018-03-14T12:25:03.585Z,4.625
2018-03-14T12:26:03.232Z,4.687
2018-03-14T12:27:03.557Z,4.625
2018-03-14T12:28:04.033Z,4.625
2018-03-14T12:29:03.431Z,4.625
2018-03-14T12:30:04.109Z,4.625
2018-03-14T12:31:03.663Z,4.625
2018-03-14T12:32:03.183Z,4.687
2018-03-14T12:33:03.603Z,4.625
2018-03-14T12:34:03.558Z,4.625
2018-03-14T12:35:04.006Z,4.562
2018-03-14T12:36:03.446Z,4.562
2018-03-14T12:37:03.915Z,4.625
2018-03-14T12:38:03.387Z,4.75
2018-03-14T12:39:03.767Z,4.75
2018-03-14T12:40:03.702Z,4.875
2018-03-14T12:41:03.316Z,4.875
2018-03-14T12:42:03.454Z,4.937
2018-03-14T12:43:03.915Z,5
2018-03-14T12:44:03.400Z,5
2018-03-14T12:45:03.975Z,4.937
2018-03-14T12:46:03.400Z,4.875
2018-03-14T12:47:03.665Z,4.812
2018-03-14T12:48:03.167Z,4.812
2018-03-14T12:49:03.472Z,4.812
2018-03-14T12:50:03.941Z,4.75
2018-03-14T12:51:03.430Z,4.687
2018-03-14T12:52:03.866Z,4.625
2018-03-14T12:53:03.330Z,4.625
2018-03-14T12:54:03.971Z,4.625
2018-03-14T12:55:03.433Z,4.562
2018-03-14T12:56:03.792Z,4.625
2018-03-14T12:57:03.186Z,4.625
2018-03-14T12:58:03.547Z,4.75
2018-03-14T12:59:03.918Z,4.687
2018-03-14T13:00:03.550Z,4.562
2018-03-14T13:01:03.734Z,4.562
2018-03-14T13:02:03.185Z,4.562
2018-03-14T13:03:03.708Z,4.625
2018-03-14T13:04:03.183Z,4.625
2018-03-14T13:05:03.862Z,4.625
2018-03-14T13:06:03.138Z,4.5